Time;durP1;ratioP1;P1;durP2;ratioP2;P2;SDS_P1;SDS_P2;PMS_P1;PMS_P2;Temp;Humidity;BMP_temperature;BMP_pressure;BME280_temperature;BME280_humidity;BME280_pressure;Samples;Min_cycle;Max_cycle;Signal;HPM_P1;HPM_P2
2021/05/24 00:01:19;;;;;;;;;5.25;5.00;;;;;15.84;49.82;98906.72;6225317;22;102874;-94
2021/05/24 00:03:46;;;;;;;;;0.00;0.00;;;;;15.85;49.34;98905.63;6209695;22;104021;-94
2021/05/24 00:06:13;;;;;;;;;2.00;2.00;;;;;15.84;49.62;98900.44;6209259;22;104000;-93
2021/05/24 00:08:41;;;;;;;;;5.50;4.00;;;;;15.84;49.06;98904.00;6210924;22;102149;-94
2021/05/24 00:11:36;;;;;;;;;4.25;4.25;;;;;15.85;48.97;98907.56;6169499;22;102516;-94
2021/05/24 00:14:06;;;;;;;;;3.00;3.00;;;;;15.82;49.31;98900.66;6099742;22;108879;-94
2021/05/24 00:16:39;;;;;;;;;5.00;4.00;;;;;15.80;49.16;98904.69;6156806;22;102268;-93
2021/05/24 00:19:06;;;;;;;;;5.00;3.75;;;;;15.81;49.50;98906.31;6215509;22;102959;-93
2021/05/24 00:21:33;;;;;;;;;6.00;4.50;;;;;15.81;48.69;98915.34;6241233;22;102550;-94
2021/05/24 00:24:22;;;;;;;;;3.50;3.00;;;;;15.78;49.34;98913.06;6170901;22;107324;-94
2021/05/24 00:27:13;;;;;;;;;3.50;3.50;;;;;15.78;48.86;98915.78;6144474;22;102414;-93
2021/05/24 00:30:10;;;;;;;;;5.00;4.00;;;;;15.56;48.99;98884.59;6160378;22;102117;-94
2021/05/24 00:32:48;;;;;;;;;4.00;3.00;;;;;15.60;48.74;98889.38;6169806;22;102634;-93
2021/05/24 00:35:38;;;;;;;;;3.75;3.00;;;;;15.74;49.22;98917.31;6035732;22;107454;-95
2021/05/24 00:38:15;;;;;;;;;4.00;4.00;;;;;15.75;48.38;98923.59;6202966;22;102399;-93
2021/05/24 00:40:48;;;;;;;;;3.25;3.00;;;;;15.51;48.63;98879.81;6242933;22;102358;-94
2021/05/24 00:43:20;;;;;;;;;3.75;3.50;;;;;15.69;48.75;98919.88;6217962;22;102347;-94
2021/05/24 00:45:58;;;;;;;;;5.00;4.00;;;;;15.68;48.60;98912.75;6204368;22;104222;-94
2021/05/24 00:48:32;;;;;;;;;5.00;5.00;;;;;15.67;48.54;98913.81;6132293;22;102312;-94
2021/05/24 00:51:10;;;;;;;;;5.00;4.50;;;;;15.69;48.03;98928.06;6190210;22;102584;-94
2021/05/24 00:53:43;;;;;;;;;4.00;4.00;;;;;15.68;48.45;98928.28;6148777;22;102588;-94
2021/05/24 00:56:17;;;;;;;;;3.25;3.25;;;;;15.59;47.85;98914.94;6207412;22;104803;-94
2021/05/24 00:58:48;;;;;;;;;3.75;3.25;;;;;15.64;48.75;98922.44;6209985;22;102422;-94
2021/05/24 01:01:28;;;;;;;;;5.00;3.25;;;;;15.65;48.62;98926.00;6131448;22;102589;-94
2021/05/24 01:04:05;;;;;;;;;4.00;3.75;;;;;15.44;48.02;98902.72;5961599;22;102178;-94
2021/05/24 01:06:40;;;;;;;;;3.00;3.00;;;;;15.60;48.28;98927.53;6179850;22;108944;-94
2021/05/24 01:09:21;;;;;;;;;4.50;4.00;;;;;15.60;47.97;98929.41;6164266;22;103383;-93
2021/05/24 01:11:54;;;;;;;;;5.25;4.00;;;;;15.61;48.33;98937.38;6132874;22;102033;-94
2021/05/24 01:14:34;;;;;;;;;3.50;3.00;;;;;15.57;48.34;98936.16;6207802;22;102896;-93
2021/05/24 01:17:07;;;;;;;;;4.25;4.00;;;;;15.54;48.04;98933.03;6232531;22;105160;-95
2021/05/24 01:19:47;;;;;;;;;6.75;5.00;;;;;15.54;47.89;98935.75;6144738;22;102176;-94
2021/05/24 01:22:23;;;;;;;;;4.50;4.00;;;;;15.53;47.90;98943.13;6002775;22;102210;-94
2021/05/24 01:24:56;;;;;;;;;5.00;4.00;;;;;15.53;47.99;98943.13;6195049;22;102855;-94
2021/05/24 01:27:30;;;;;;;;;4.25;4.00;;;;;15.51;47.67;98928.03;6197635;22;103180;-94
2021/05/24 01:30:03;;;;;;;;;4.50;3.50;;;;;15.50;47.57;98920.88;6233330;22;102519;-94
2021/05/24 01:32:48;;;;;;;;;4.00;3.75;;;;;15.49;47.71;98925.50;6161606;22;102326;-94
2021/05/24 01:35:27;;;;;;;;;4.75;4.00;;;;;15.43;48.09;98929.13;5894068;22;102464;-93
2021/05/24 01:37:59;;;;;;;;;4.25;4.00;;;;;15.42;47.46;98930.19;6083331;22;103174;-93
2021/05/24 01:40:43;;;;;;;;;4.75;4.75;;;;;15.40;47.48;98929.56;6054975;22;102292;-93
2021/05/24 01:43:25;;;;;;;;;5.75;4.75;;;;;15.43;47.75;98939.19;5989250;22;102303;-94
2021/05/24 01:46:15;;;;;;;;;4.00;4.00;;;;;15.43;47.74;98922.84;5958962;22;102362;-94
2021/05/24 01:49:02;;;;;;;;;5.75;4.00;;;;;15.39;47.33;98925.19;6018802;22;109072;-95
2021/05/24 01:51:45;;;;;;;;;6.75;5.50;;;;;15.31;47.64;98920.00;6026748;22;102289;-94
2021/05/24 01:54:56;;;;;;;;;4.75;4.75;;;;;15.37;47.67;98926.47;6000372;22;102499;-94
2021/05/24 01:57:35;;;;;;;;;4.75;4.00;;;;;15.36;47.67;98924.78;5911458;22;102348;-94
2021/05/24 02:00:23;;;;;;;;;4.25;4.00;;;;;15.35;47.47;98929.44;5952186;22;107459;-94
2021/05/24 02:03:01;;;;;;;;;6.25;6.00;;;;;15.33;47.25;98934.25;6053239;22;102331;-94
2021/05/24 02:05:38;;;;;;;;;4.75;4.00;;;;;15.33;47.63;98942.44;6101005;22;102268;-94
2021/05/24 02:08:15;;;;;;;;;4.50;4.25;;;;;15.32;47.59;98939.91;6246650;22;102375;-94
2021/05/24 02:10:47;;;;;;;;;6.00;5.00;;;;;15.30;47.28;98947.50;6237821;22;107597;-94
2021/05/24 02:13:23;;;;;;;;;5.00;5.00;;;;;15.28;47.17;98949.59;6234949;22;102900;-94
2021/05/24 02:15:56;;;;;;;;;5.00;5.00;;;;;15.28;47.20;98936.81;6236432;22;102362;-95
2021/05/24 02:18:29;;;;;;;;;5.00;5.00;;;;;15.27;47.28;98945.19;6241864;22;102342;-94
2021/05/24 02:21:03;;;;;;;;;5.00;5.00;;;;;15.22;47.06;98945.06;6235802;22;104902;-94
2021/05/24 02:23:40;;;;;;;;;6.25;6.00;;;;;15.24;46.66;98942.91;6238800;22;102548;-94
2021/05/24 02:26:13;;;;;;;;;5.00;5.00;;;;;15.21;47.04;98938.78;6242480;22;102092;-94
2021/05/24 02:28:48;;;;;;;;;7.50;5.25;;;;;15.21;47.03;98949.66;6247464;22;105631;-95
2021/05/24 02:31:22;;;;;;;;;6.25;5.50;;;;;15.16;47.18;98935.88;6196302;22;107700;-93
2021/05/24 02:33:55;;;;;;;;;5.00;4.75;;;;;15.19;46.97;98940.88;6219924;22;104084;-94
2021/05/24 02:36:28;;;;;;;;;5.00;4.25;;;;;15.15;47.26;98943.22;6270899;22;102390;-95
2021/05/24 02:39:09;;;;;;;;;5.50;5.00;;;;;15.17;46.96;98949.25;6275231;22;102416;-94
2021/05/24 02:41:43;;;;;;;;;5.25;4.75;;;;;15.11;46.84;98944.72;6273600;22;107648;-93
2021/05/24 02:44:16;;;;;;;;;5.75;5.00;;;;;15.11;46.54;98943.88;6275409;22;101993;-94
2021/05/24 02:46:54;;;;;;;;;6.00;4.00;;;;;15.12;46.95;98951.00;6133071;22;102186;-93
2021/05/24 02:49:28;;;;;;;;;4.75;4.75;;;;;15.08;46.72;98941.59;6278826;22;102463;-93
2021/05/24 02:51:59;;;;;;;;;7.50;5.00;;;;;15.11;46.79;98962.94;6273055;22;103029;-94
2021/05/24 02:54:36;;;;;;;;;6.00;5.00;;;;;15.08;46.86;98956.03;6252445;22;102262;-94
2021/05/24 02:57:14;;;;;;;;;5.75;5.00;;;;;15.05;46.81;98956.47;6278681;22;101910;-94
2021/05/24 02:59:50;;;;;;;;;5.00;5.00;;;;;15.01;46.59;98955.25;6279685;22;102588;-93
2021/05/24 03:02:29;;;;;;;;;7.75;6.25;;;;;15.05;46.83;98963.81;6201635;22;107608;-94
2021/05/24 03:05:07;;;;;;;;;6.75;6.00;;;;;14.99;46.70;98970.16;6276297;22;102339;-94
2021/05/24 03:07:43;;;;;;;;;6.25;4.75;;;;;15.00;46.85;98980.81;6246774;22;102384;-94
2021/05/24 03:10:20;;;;;;;;;5.75;4.00;;;;;15.01;46.60;98982.50;6252624;22;102183;-94
2021/05/24 03:12:53;;;;;;;;;4.00;4.00;;;;;15.00;46.27;98974.53;6167271;22;108092;-94
2021/05/24 03:15:20;;;;;;;;;4.50;3.50;;;;;14.98;46.69;98976.66;6278114;22;102348;-94
2021/05/24 03:17:48;;;;;;;;;6.00;6.00;;;;;14.97;46.69;98980.41;6279450;22;102469;-94
2021/05/24 03:20:15;;;;;;;;;5.50;3.75;;;;;14.96;46.48;98985.03;6279960;22;102436;-94
2021/05/24 03:22:43;;;;;;;;;4.50;4.50;;;;;14.96;46.40;98979.59;6274941;22;109089;-93
2021/05/24 03:25:14;;;;;;;;;5.00;3.50;;;;;14.94;46.44;98984.44;6224723;22;102634;-94
2021/05/24 03:27:41;;;;;;;;;6.00;6.00;;;;;14.94;46.50;98987.16;6244278;22;101865;-94
2021/05/24 03:30:09;;;;;;;;;7.75;6.00;;;;;14.93;46.68;98990.09;6253989;22;102165;-94
2021/05/24 03:32:36;;;;;;;;;4.75;4.00;;;;;14.92;46.40;98996.59;6271643;22;103824;-95
2021/05/24 03:35:04;;;;;;;;;7.00;5.00;;;;;14.91;46.36;98982.13;6191794;22;102446;-94
2021/05/24 03:37:31;;;;;;;;;5.00;4.50;;;;;14.83;46.57;98982.41;6267414;22;102522;-94
2021/05/24 03:40:00;;;;;;;;;6.00;5.00;;;;;14.87;46.48;98990.94;6219579;22;102346;-94
2021/05/24 03:42:28;;;;;;;;;7.75;5.50;;;;;14.86;46.58;98984.66;6272086;22;104308;-94
2021/05/24 03:44:55;;;;;;;;;4.75;4.00;;;;;14.84;46.27;98980.50;6197186;22;102988;-94
2021/05/24 03:47:22;;;;;;;;;3.75;3.75;;;;;14.84;46.27;98980.50;6194520;22;102384;-94
2021/05/24 03:49:52;;;;;;;;;4.00;4.00;;;;;14.83;46.47;98979.69;6172715;22;102252;-94
2021/05/24 03:52:19;;;;;;;;;4.00;4.00;;;;;14.82;46.36;98980.72;6223127;22;104023;-93
2021/05/24 03:54:47;;;;;;;;;4.25;4.25;;;;;14.80;46.51;98971.13;6258874;22;101910;-95
2021/05/24 03:57:17;;;;;;;;;6.00;4.50;;;;;14.79;46.07;98972.16;6223570;22;102710;-94
2021/05/24 03:59:44;;;;;;;;;5.00;5.00;;;;;14.75;46.00;98977.22;6278516;22;102230;-94
2021/05/24 04:02:11;;;;;;;;;3.75;3.00;;;;;14.75;46.70;98982.66;6276502;22;104067;-93
2021/05/24 04:04:40;;;;;;;;;6.75;5.50;;;;;14.76;46.06;98978.06;6279492;22;104043;-95
2021/05/24 04:07:08;;;;;;;;;3.50;3.50;;;;;14.73;46.44;98973.88;6246045;22;102413;-94
2021/05/24 04:09:36;;;;;;;;;5.00;4.00;;;;;14.73;46.73;98969.25;6250631;22;102642;-94
2021/05/24 04:12:03;;;;;;;;;5.00;4.25;;;;;14.75;46.43;98966.31;6226157;22;104420;-95
2021/05/24 04:14:32;;;;;;;;;6.75;6.00;;;;;14.72;46.25;98966.78;6278109;22;102741;-94
2021/05/24 04:17:00;;;;;;;;;6.50;5.00;;;;;14.71;46.60;98965.94;6300345;22;101223;-94
2021/05/24 04:19:27;;;;;;;;;4.75;4.75;;;;;14.72;46.33;98969.50;6247867;22;101703;-94
2021/05/24 04:21:54;;;;;;;;;5.00;4.75;;;;;14.68;46.53;98968.25;6273856;22;103505;-95
2021/05/24 04:24:21;;;;;;;;;4.00;3.00;;;;;14.72;46.47;98972.22;6281725;22;101207;-96
2021/05/24 04:26:48;;;;;;;;;5.25;4.75;;;;;14.68;46.71;98974.53;6283584;22;102133;-94
2021/05/24 04:29:15;;;;;;;;;4.75;3.75;;;;;14.68;45.96;98979.13;6275574;22;102126;-94
2021/05/24 04:31:42;;;;;;;;;4.75;4.25;;;;;14.69;46.36;98972.63;6303118;22;103208;-94
2021/05/24 04:34:10;;;;;;;;;6.00;3.75;;;;;14.65;46.16;98972.25;6308813;22;101588;-94
2021/05/24 04:36:37;;;;;;;;;5.00;4.00;;;;;14.69;46.27;98986.25;6279371;22;102049;-94
2021/05/24 04:39:04;;;;;;;;;6.75;5.00;;;;;14.65;46.45;98987.75;6277166;22;102530;-94
2021/05/24 04:41:31;;;;;;;;;4.50;3.50;;;;;14.66;46.57;98989.41;6300824;22;103227;-94
2021/05/24 04:44:10;;;;;;;;;4.75;4.50;;;;;14.63;46.97;99001.56;6272223;22;101751;-94
2021/05/24 04:46:37;;;;;;;;;4.75;3.75;;;;;14.67;46.05;99001.97;6247365;22;101397;-94
2021/05/24 04:49:05;;;;;;;;;4.25;3.50;;;;;14.64;46.65;99003.22;6277336;22;101768;-93
2021/05/24 04:51:32;;;;;;;;;5.00;4.00;;;;;14.64;46.50;99014.13;6277849;22;104314;-95
2021/05/24 04:53:59;;;;;;;;;5.00;4.25;;;;;14.66;47.08;99022.91;6268663;22;101798;-93
2021/05/24 04:56:26;;;;;;;;;5.00;4.00;;;;;14.66;46.75;99019.34;6273517;22;102527;-95
2021/05/24 04:58:53;;;;;;;;;5.00;4.00;;;;;14.65;46.99;99018.50;6308098;22;102107;-93
2021/05/24 05:01:20;;;;;;;;;4.50;4.50;;;;;14.65;46.97;99013.06;6267984;22;103574;-95
2021/05/24 05:03:47;;;;;;;;;3.00;3.00;;;;;14.64;47.11;99022.28;6275585;22;101983;-96
2021/05/24 05:06:15;;;;;;;;;3.50;3.00;;;;;14.65;46.95;99025.84;6255245;22;104988;-94
2021/05/24 05:08:42;;;;;;;;;3.00;2.75;;;;;14.63;47.20;99019.78;6246998;22;102580;-96
2021/05/24 05:11:09;;;;;;;;;3.00;3.00;;;;;14.63;47.11;99028.78;6249055;22;103871;-95
2021/05/24 05:13:36;;;;;;;;;4.50;4.00;;;;;14.65;47.11;99023.97;6249374;22;102043;-95
2021/05/24 05:16:04;;;;;;;;;4.00;4.00;;;;;14.65;47.02;99023.13;6242041;22;101997;-94
2021/05/24 05:18:31;;;;;;;;;3.00;3.00;;;;;14.62;47.54;99021.69;6250580;22;102542;-95
2021/05/24 05:20:58;;;;;;;;;3.50;3.50;;;;;14.65;47.74;99037.56;6279704;22;103936;-95
2021/05/24 05:23:25;;;;;;;;;4.00;4.00;;;;;14.67;47.51;99023.75;6281984;22;102091;-95
2021/05/24 05:25:53;;;;;;;;;3.50;3.50;;;;;14.68;47.28;99036.28;6283069;22;101871;-95
2021/05/24 05:28:22;;;;;;;;;4.75;3.75;;;;;14.68;47.35;99037.13;6235067;22;102138;-96
2021/05/24 05:30:50;;;;;;;;;4.75;4.00;;;;;14.69;47.86;99032.53;6246287;22;107567;-95
2021/05/24 05:33:19;;;;;;;;;5.50;5.25;;;;;14.70;48.01;99043.19;6250439;22;101961;-94
2021/05/24 05:35:47;;;;;;;;;2.75;2.00;;;;;14.71;47.83;99036.72;6239456;22;103832;-94
2021/05/24 05:38:15;;;;;;;;;3.00;3.00;;;;;14.71;48.13;99041.31;6252226;22;102194;-94
2021/05/24 05:40:46;;;;;;;;;5.00;4.00;;;;;14.70;47.98;99040.47;6259037;22;102850;-93
2021/05/24 05:43:13;;;;;;;;;3.75;3.00;;;;;14.68;47.93;99026.22;6245697;22;102177;-94
2021/05/24 05:45:40;;;;;;;;;4.00;3.00;;;;;14.71;48.54;99041.31;6234107;22;102433;-93
2021/05/24 05:48:08;;;;;;;;;4.50;4.25;;;;;14.71;48.68;99038.59;6200887;22;102130;-94
2021/05/24 05:50:36;;;;;;;;;3.75;3.75;;;;;14.71;48.30;99035.88;6200839;22;104401;-93
2021/05/24 05:53:04;;;;;;;;;4.75;4.00;;;;;14.71;48.40;99030.44;6196781;22;102144;-94
2021/05/24 05:55:31;;;;;;;;;3.25;3.25;;;;;14.70;49.05;99040.47;6185257;22;102870;-94
2021/05/24 05:57:59;;;;;;;;;5.50;4.00;;;;;14.70;48.70;99034.19;6244674;22;101961;-93
2021/05/24 06:00:26;;;;;;;;;5.25;4.00;;;;;14.70;49.36;99034.19;6250174;22;104101;-95
2021/05/24 06:02:53;;;;;;;;;4.00;4.00;;;;;14.69;48.87;99029.78;6244072;22;102616;-93
2021/05/24 06:05:20;;;;;;;;;4.00;3.50;;;;;14.72;49.27;99040.28;6238310;22;102854;-95
2021/05/24 06:07:47;;;;;;;;;4.25;4.00;;;;;14.73;49.55;99048.19;6274979;22;102144;-94
2021/05/24 06:10:16;;;;;;;;;3.75;3.00;;;;;14.72;49.79;99037.56;6215994;22;105480;-93
2021/05/24 06:12:45;;;;;;;;;1.75;1.00;;;;;14.76;49.81;99037.94;6216640;22;102616;-93
2021/05/24 06:15:15;;;;;;;;;5.00;5.00;;;;;14.76;49.96;99044.22;6250544;22;102430;-94
2021/05/24 06:17:43;;;;;;;;;3.00;3.00;;;;;14.77;50.05;99031.47;6220507;22;102722;-94
2021/05/24 06:20:10;;;;;;;;;3.00;3.00;;;;;14.75;50.21;99037.09;6244510;22;103565;-94
2021/05/24 06:22:40;;;;;;;;;3.75;3.00;;;;;14.77;50.43;99042.34;6252269;22;102196;-94
2021/05/24 06:25:08;;;;;;;;;3.25;3.00;;;;;14.80;49.76;99040.00;6218683;22;109779;-94
2021/05/24 06:27:36;;;;;;;;;3.50;3.50;;;;;14.83;50.22;99052.34;6271697;22;102513;-94
2021/05/24 06:30:05;;;;;;;;;3.50;3.25;;;;;14.84;50.36;99057.59;6238732;22;105293;-94
2021/05/24 06:32:32;;;;;;;;;4.00;3.00;;;;;14.84;50.14;99049.41;6228175;22;102975;-94
2021/05/24 06:34:59;;;;;;;;;3.50;2.25;;;;;14.89;50.20;99055.03;6243224;22;102712;-94
2021/05/24 06:37:27;;;;;;;;;6.00;4.00;;;;;14.91;50.90;99068.41;6220063;22;102151;-93
2021/05/24 06:39:54;;;;;;;;;5.75;4.25;;;;;14.90;51.00;99062.16;6272632;22;104115;-93
2021/05/24 06:42:22;;;;;;;;;3.00;2.50;;;;;14.93;50.41;99056.28;6283864;22;102140;-93
2021/05/24 06:44:50;;;;;;;;;3.75;2.00;;;;;14.94;50.46;99052.50;6276988;22;102409;-94
2021/05/24 06:47:17;;;;;;;;;3.75;3.75;;;;;14.98;51.04;99052.91;6277746;22;102680;-93
2021/05/24 06:49:44;;;;;;;;;2.75;2.50;;;;;14.94;51.26;99036.16;6247289;22;104012;-93
2021/05/24 06:52:11;;;;;;;;;3.00;3.00;;;;;14.98;50.64;99042.84;6278955;22;102475;-93
2021/05/24 06:54:38;;;;;;;;;3.00;3.00;;;;;15.03;50.93;99036.75;6274335;22;104604;-94
2021/05/24 06:57:06;;;;;;;;;2.00;2.00;;;;;15.04;51.18;99030.25;6227510;22;102160;-94
2021/05/24 06:59:35;;;;;;;;;2.75;2.00;;;;;15.07;50.80;99027.91;6248404;22;104126;-94
2021/05/24 07:02:02;;;;;;;;;5.00;3.00;;;;;15.08;51.19;99037.72;6246635;22;102165;-95
2021/05/24 07:04:29;;;;;;;;;2.75;2.75;;;;;15.09;51.01;99044.03;6185676;22;104188;-93
2021/05/24 07:06:57;;;;;;;;;2.50;2.50;;;;;15.12;50.78;99047.16;6272863;22;102587;-93
2021/05/24 07:09:24;;;;;;;;;2.00;2.00;;;;;15.14;51.29;99044.19;6279638;22;104369;-94
2021/05/24 07:11:52;;;;;;;;;2.00;2.00;;;;;15.17;51.43;99046.50;6220119;22;103082;-93
2021/05/24 07:14:19;;;;;;;;;2.75;2.00;;;;;15.19;51.35;99045.22;6271078;22;102357;-94
2021/05/24 07:16:46;;;;;;;;;2.75;2.00;;;;;15.19;51.49;99047.94;6222609;22;102561;-94
2021/05/24 07:19:13;;;;;;;;;2.75;2.75;;;;;15.23;51.63;99058.38;6217345;22;104168;-93
2021/05/24 07:21:40;;;;;;;;;2.00;1.75;;;;;15.24;51.60;99058.19;6275511;22;102304;-93
2021/05/24 07:24:08;;;;;;;;;2.25;1.75;;;;;15.22;51.20;99054.03;6266188;22;102318;-93
2021/05/24 07:26:54;;;;;;;;;3.00;2.50;;;;;15.27;51.64;99056.91;6208996;22;102552;-94
2021/05/24 07:29:22;;;;;;;;;2.00;2.00;;;;;15.29;51.25;99054.78;6200938;22;108808;-93
2021/05/24 07:31:49;;;;;;;;;3.00;2.00;;;;;15.31;51.15;99052.69;6263504;22;102164;-94
2021/05/24 07:34:16;;;;;;;;;3.25;2.75;;;;;15.30;50.61;99051.88;6269307;22;102028;-94
2021/05/24 07:36:43;;;;;;;;;2.00;2.00;;;;;15.32;51.03;99049.72;6216938;22;102282;-93
2021/05/24 07:39:10;;;;;;;;;1.75;1.75;;;;;15.31;51.03;99025.47;6212455;22;103944;-93
2021/05/24 07:41:37;;;;;;;;;2.00;2.00;;;;;15.36;50.83;99028.31;6271111;22;102098;-94
2021/05/24 07:44:05;;;;;;;;;2.00;1.50;;;;;15.37;50.97;99035.44;6270933;22;102114;-94
2021/05/24 07:46:33;;;;;;;;;2.00;2.00;;;;;15.37;50.64;99030.00;6247940;22;102371;-94
2021/05/24 07:49:00;;;;;;;;;4.00;3.00;;;;;15.40;50.85;99024.13;6274393;22;104812;-93
2021/05/24 07:51:27;;;;;;;;;2.00;2.00;;;;;15.41;50.72;99031.22;6242095;22;102826;-94
2021/05/24 07:53:54;;;;;;;;;2.75;1.50;;;;;15.42;50.73;99022.84;6245624;22;102210;-94
2021/05/24 07:56:21;;;;;;;;;2.25;1.75;;;;;15.44;50.67;99019.91;6220516;22;102592;-94
2021/05/24 07:58:48;;;;;;;;;3.00;2.00;;;;;15.44;50.59;99018.00;6220187;22;104248;-93
2021/05/24 08:01:16;;;;;;;;;2.75;2.50;;;;;15.46;50.92;99012.31;6273252;22;104774;-94
2021/05/24 08:03:43;;;;;;;;;1.50;1.50;;;;;15.47;50.94;99009.38;6190501;22;102504;-94
2021/05/24 08:06:10;;;;;;;;;2.00;2.00;;;;;15.48;50.86;99008.34;6273273;22;102353;-95
2021/05/24 08:08:37;;;;;;;;;2.00;2.00;;;;;15.50;51.01;99024.44;6234978;22;104265;-93
2021/05/24 08:11:11;;;;;;;;;3.00;2.00;;;;;15.52;51.26;99025.09;6268985;22;102257;-94
2021/05/24 08:13:38;;;;;;;;;2.75;2.50;;;;;15.52;50.94;99027.81;6255326;22;102609;-94
2021/05/24 08:16:06;;;;;;;;;2.00;2.00;;;;;15.55;50.84;99022.75;6210632;22;102240;-94
2021/05/24 08:18:33;;;;;;;;;2.00;2.00;;;;;15.54;51.02;99020.25;6215006;22;104004;-94
2021/05/24 08:21:01;;;;;;;;;2.25;2.00;;;;;15.58;50.39;99016.84;6223003;22;102546;-94
2021/05/24 08:23:38;;;;;;;;;2.00;2.00;;;;;15.57;51.16;99007.03;6227765;22;102494;-94
2021/05/24 08:26:05;;;;;;;;;1.00;1.00;;;;;15.58;50.73;98989.59;6232179;22;102650;-94
2021/05/24 08:28:32;;;;;;;;;2.00;2.00;;;;;15.60;51.15;98982.03;6187763;22;104618;-93
2021/05/24 08:30:59;;;;;;;;;2.00;2.00;;;;;15.64;51.02;98990.59;6208266;22;102123;-94
2021/05/24 08:33:27;;;;;;;;;2.00;2.00;;;;;15.63;51.14;98994.38;6278117;22;102349;-94
2021/05/24 08:35:54;;;;;;;;;3.00;2.00;;;;;15.64;50.89;98976.97;6270967;22;102282;-93
2021/05/24 08:38:21;;;;;;;;;2.25;2.00;;;;;15.66;50.97;98980.31;6216144;22;103306;-93
2021/05/24 08:40:48;;;;;;;;;2.00;2.00;;;;;15.68;51.13;98980.91;6239566;22;102421;-94
2021/05/24 08:43:16;;;;;;;;;3.00;2.00;;;;;15.70;51.29;98976.09;6206239;22;102512;-94
2021/05/24 08:45:43;;;;;;;;;1.75;1.75;;;;;15.71;51.05;98966.84;6242161;22;102397;-94
2021/05/24 08:48:11;;;;;;;;;1.00;1.00;;;;;15.72;51.25;98957.59;6259364;22;103960;-94
2021/05/24 08:50:39;;;;;;;;;2.25;1.75;;;;;15.74;50.97;98957.38;6272825;22;102486;-94
2021/05/24 08:53:07;;;;;;;;;1.00;1.00;;;;;15.75;51.30;98957.16;6190244;22;102496;-94
2021/05/24 08:55:34;;;;;;;;;2.25;1.00;;;;;15.76;51.20;98952.53;6194622;22;102140;-94
2021/05/24 08:58:01;;;;;;;;;2.00;1.50;;;;;15.77;51.00;98952.28;6235653;22;104007;-93
2021/05/24 09:00:30;;;;;;;;;1.75;1.50;;;;;15.79;50.91;98947.47;6244409;22;102158;-94
2021/05/24 09:02:57;;;;;;;;;2.75;2.75;;;;;15.82;51.42;98951.63;6220738;22;102520;-95
2021/05/24 09:05:29;;;;;;;;;2.00;2.00;;;;;15.82;51.13;98952.47;6238670;22;102239;-95
2021/05/24 09:08:00;;;;;;;;;1.00;1.00;;;;;15.84;50.83;98963.16;6220555;22;109120;-94
2021/05/24 09:10:28;;;;;;;;;3.50;1.75;;;;;15.84;51.53;98969.44;6231662;22;102184;-94
2021/05/24 09:12:56;;;;;;;;;1.25;1.25;;;;;15.87;51.06;98968.13;6245073;22;102578;-94
2021/05/24 09:15:24;;;;;;;;;1.00;1.00;;;;;15.88;51.24;98964.34;6206843;22;102115;-94
2021/05/24 09:17:53;;;;;;;;;1.25;1.25;;;;;15.88;50.70;98970.66;6272009;22;104180;-94
2021/05/24 09:20:21;;;;;;;;;2.00;1.00;;;;;15.91;51.02;98953.81;6233448;22;102606;-93
2021/05/24 09:23:15;;;;;;;;;0.00;0.00;;;;;15.93;51.22;98954.44;6271876;22;102500;-94
2021/05/24 09:25:55;;;;;;;;;1.00;1.00;;;;;15.94;51.37;98956.09;6180362;22;102224;-94
2021/05/24 09:28:35;;;;;;;;;1.00;1.00;;;;;15.96;51.13;98948.53;6235769;22;103981;-93
2021/05/24 09:31:11;;;;;;;;;2.00;1.00;;;;;15.97;50.73;98943.91;6213709;22;102176;-94
2021/05/24 09:33:50;;;;;;;;;1.75;1.00;;;;;15.98;51.33;98945.59;6183055;22;102263;-94
2021/05/24 09:36:17;;;;;;;;;1.25;1.25;;;;;15.99;51.00;98933.59;6266558;22;103172;-94
2021/05/24 09:38:45;;;;;;;;;1.50;1.00;;;;;16.00;50.98;98933.38;6237339;22;104030;-93
2021/05/24 09:41:13;;;;;;;;;2.00;1.00;;;;;16.03;51.38;98940.25;6273843;22;102663;-93
2021/05/24 09:43:44;;;;;;;;;1.50;1.00;;;;;16.04;51.02;98923.66;6272566;22;102299;-94
2021/05/24 09:46:31;;;;;;;;;1.00;1.00;;;;;16.07;50.87;98922.41;6271116;22;102339;-94
2021/05/24 09:49:02;;;;;;;;;1.00;1.00;;;;;16.05;51.28;98914.44;6245487;22;108775;-94
2021/05/24 09:51:31;;;;;;;;;1.75;1.00;;;;;16.04;51.11;98910.03;6215125;22;102450;-94
2021/05/24 09:54:03;;;;;;;;;1.00;0.00;;;;;16.10;51.44;98907.44;6274864;22;102557;-95
2021/05/24 09:56:34;;;;;;;;;1.00;0.25;;;;;16.11;51.01;98907.22;6271839;22;102177;-93
2021/05/24 09:59:16;;;;;;;;;2.00;0.00;;;;;16.11;51.11;98896.31;6271116;22;104004;-93
2021/05/24 10:01:53;;;;;;;;;2.00;1.25;;;;;16.14;51.03;98895.84;6234969;22;102544;-94
2021/05/24 10:04:32;;;;;;;;;1.00;1.00;;;;;16.13;51.05;98898.81;6269897;22;102520;-93
2021/05/24 10:07:01;;;;;;;;;0.00;0.00;;;;;16.15;50.99;98899.41;6270114;22;102645;-92
2021/05/24 10:09:33;;;;;;;;;1.00;1.00;;;;;16.17;51.29;98902.72;6250913;22;108790;-95
2021/05/24 10:12:03;;;;;;;;;1.00;1.00;;;;;16.17;51.84;98900.00;6234560;22;103641;-94
2021/05/24 10:14:30;;;;;;;;;1.00;1.00;;;;;16.20;50.67;98899.56;6269490;22;102318;-94
2021/05/24 10:17:02;;;;;;;;;0.00;0.00;;;;;16.20;51.62;98902.28;6204677;22;102565;-94
2021/05/24 10:19:30;;;;;;;;;1.00;0.33;;;;;16.22;51.74;98895.53;6205955;22;108568;-95
2021/05/24 10:21:58;;;;;;;;;1.00;1.00;;;;;16.25;50.90;98902.44;6188375;22;102401;-94
2021/05/24 10:24:26;;;;;;;;;1.00;1.00;;;;;16.26;51.01;98884.97;6215037;22;102268;-94
2021/05/24 10:26:55;;;;;;;;;1.00;1.00;;;;;16.27;51.13;98873.84;6250791;22;102387;-93
2021/05/24 10:29:22;;;;;;;;;1.00;0.50;;;;;16.28;51.64;98882.88;6239838;22;103224;-94
2021/05/24 10:31:50;;;;;;;;;1.00;1.00;;;;;16.29;51.41;98876.34;6271080;22;101582;-94
2021/05/24 10:34:22;;;;;;;;;1.00;1.00;;;;;16.31;51.09;98876.94;6279307;22;103837;-94
2021/05/24 10:37:09;;;;;;;;;1.25;1.00;;;;;16.33;51.12;98872.09;6268560;22;101256;-94
2021/05/24 10:39:53;;;;;;;;;0.75;0.00;;;;;16.34;51.58;98880.06;6270808;22;107459;-93
2021/05/24 10:42:39;;;;;;;;;0.00;0.00;;;;;16.36;51.75;98882.53;6308241;22;101530;-94
2021/05/24 10:45:23;;;;;;;;;1.00;1.00;;;;;16.34;51.47;98877.34;6291327;22;101908;-95
2021/05/24 10:47:54;;;;;;;;;0.00;0.00;;;;;16.37;50.87;98878.75;6210429;22;101775;-93
2021/05/24 10:50:21;;;;;;;;;0.33;0.33;;;;;16.41;51.15;98860.84;6290969;22;102987;-94
2021/05/24 10:53:04;;;;;;;;;2.00;1.00;;;;;16.43;51.49;98867.75;6287462;22;102346;-94
2021/05/24 10:55:34;;;;;;;;;0.00;0.00;;;;;16.43;51.16;98862.28;6293235;22;102314;-95
2021/05/24 10:58:05;;;;;;;;;1.00;0.00;;;;;16.46;50.86;98852.81;6299161;22;101935;-94
2021/05/24 11:01:01;;;;;;;;;0.00;0.00;;;;;16.48;50.57;98864.31;6232870;22;106297;-94
2021/05/24 11:03:29;;;;;;;;;1.00;0.67;;;;;16.49;51.29;98865.97;6190027;22;102355;-94
2021/05/24 11:06:16;;;;;;;;;0.00;0.00;;;;;16.52;51.13;98860.06;6261099;22;102432;-94
2021/05/24 11:09:04;;;;;;;;;0.00;0.00;;;;;16.53;50.64;98848.06;6155574;22;105086;-94
2021/05/24 11:11:34;;;;;;;;;0.00;0.00;;;;;16.55;50.98;98850.56;6272601;22;108805;-93
2021/05/24 11:14:03;;;;;;;;;1.00;0.00;;;;;16.55;50.58;98835.03;6253919;22;101934;-93
2021/05/24 11:16:32;;;;;;;;;0.00;0.00;;;;;16.58;51.25;98820.94;6223467;22;102193;-93
2021/05/24 11:19:13;;;;;;;;;1.00;0.00;;;;;16.59;50.93;98825.31;6276374;22;102485;-93
2021/05/24 11:21:41;;;;;;;;;1.00;0.00;;;;;16.58;50.95;98811.91;6155783;22;108715;-93
2021/05/24 11:27:12;;;;;;;;;0.00;0.00;;;;;16.61;51.53;98808.72;6248920;22;101899;-94
2021/05/24 11:29:40;;;;;;;;;1.50;1.00;;;;;16.63;50.53;98806.56;6124845;22;102076;-95
2021/05/24 11:32:25;;;;;;;;;2.00;0.00;;;;;16.65;51.37;98809.91;6268109;22;104238;-94
2021/05/24 11:34:54;;;;;;;;;0.00;0.00;;;;;16.64;51.82;98803.63;6264939;22;102328;-94
2021/05/24 11:37:40;;;;;;;;;0.33;0.33;;;;;16.65;51.89;98799.81;6191041;22;102522;-94
2021/05/24 11:40:14;;;;;;;;;1.00;0.33;;;;;16.67;51.66;98789.50;6203819;22;102166;-94
2021/05/24 11:42:41;;;;;;;;;0.67;0.00;;;;;16.67;50.98;98792.22;6227884;22;103956;-93
2021/05/24 11:45:17;;;;;;;;;0.00;0.00;;;;;16.68;51.04;98790.31;6246546;22;102051;-94
2021/05/24 11:47:44;;;;;;;;;0.67;0.67;;;;;16.68;50.79;98787.59;6198928;22;102126;-95